sensor_id;sensor_type;location;lat;lon;timestamp;pressure;altitude;pressure_sealevel;temperature;humidity
71976;BME280;60680;52.182;5.398;2022-11-02T00:01:58;101352.31;;;12.40;93.09
71976;BME280;60680;52.182;5.398;2022-11-02T00:04:25;101341.03;;;12.39;92.51
71976;BME280;60680;52.182;5.398;2022-11-02T00:06:51;101363.59;;;12.40;92.30
71976;BME280;60680;52.182;5.398;2022-11-02T00:09:18;101354.16;;;12.38;92.34
71976;BME280;60680;52.182;5.398;2022-11-02T00:11:44;101342.88;;;12.37;92.17
71976;BME280;60680;52.182;5.398;2022-11-02T00:14:11;101345.72;;;12.33;91.78
71976;BME280;60680;52.182;5.398;2022-11-02T00:16:38;101344.06;;;12.30;92.22
71976;BME280;60680;52.182;5.398;2022-11-02T00:19:06;101354.63;;;12.29;92.28
71976;BME280;60680;52.182;5.398;2022-11-02T00:21:34;101347.63;;;12.29;92.01
71976;BME280;60680;52.182;5.398;2022-11-02T00:24:01;101335.66;;;12.25;91.63
71976;BME280;60680;52.182;5.398;2022-11-02T00:26:28;101335.72;;;12.23;91.98
71976;BME280;60680;52.182;5.398;2022-11-02T00:28:57;101336.59;;;12.24;91.85
71976;BME280;60680;52.182;5.398;2022-11-02T00:31:23;101335.72;;;12.23;91.48
71976;BME280;60680;52.182;5.398;2022-11-02T00:33:50;101335.59;;;12.27;91.32
71976;BME280;60680;52.182;5.398;2022-11-02T00:36:17;101344.25;;;12.27;91.89
71976;BME280;60680;52.182;5.398;2022-11-02T00:38:43;101342.41;;;12.29;91.53
71976;BME280;60680;52.182;5.398;2022-11-02T00:41:10;101341.47;;;12.30;91.56
71976;BME280;60680;52.182;5.398;2022-11-02T00:43:38;101341.47;;;12.30;91.19
71976;BME280;60680;52.182;5.398;2022-11-02T00:46:04;101341.47;;;12.30;90.93
71976;BME280;60680;52.182;5.398;2022-11-02T00:48:31;101346.63;;;12.32;90.45
71976;BME280;60680;52.182;5.398;2022-11-02T00:50:57;101339.63;;;12.32;90.35
71976;BME280;60680;52.182;5.398;2022-11-02T00:53:24;101338.09;;;12.28;89.84
71976;BME280;60680;52.182;5.398;2022-11-02T00:55:50;101344.00;;;12.32;90.07
71976;BME280;60680;52.182;5.398;2022-11-02T00:58:19;101339.63;;;12.32;89.42
71976;BME280;60680;52.182;5.398;2022-11-02T01:00:46;101339.63;;;12.32;89.27
71976;BME280;60680;52.182;5.398;2022-11-02T01:03:12;101340.50;;;12.33;89.86
71976;BME280;60680;52.182;5.398;2022-11-02T01:05:39;101332.56;;;12.34;89.81
71976;BME280;60680;52.182;5.398;2022-11-02T01:08:05;101351.72;;;12.35;89.07
71976;BME280;60680;52.182;5.398;2022-11-02T01:10:32;101354.22;;;12.36;89.80
71976;BME280;60680;52.182;5.398;2022-11-02T01:13:00;101364.88;;;12.32;89.50
71976;BME280;60680;52.182;5.398;2022-11-02T01:15:26;101377.47;;;12.23;90.98
71976;BME280;60680;52.182;5.398;2022-11-02T01:17:53;101369.25;;;12.14;89.88
71976;BME280;60680;52.182;5.398;2022-11-02T01:20:19;101359.94;;;12.08;89.63
71976;BME280;60680;52.182;5.398;2022-11-02T01:22:46;101363.78;;;12.01;89.58
71976;BME280;60680;52.182;5.398;2022-11-02T01:25:12;101356.09;;;11.98;89.29
71976;BME280;60680;52.182;5.398;2022-11-02T01:27:39;101357.03;;;11.97;89.79
71976;BME280;60680;52.182;5.398;2022-11-02T01:30:06;101362.59;;;11.89;89.38
71976;BME280;60680;52.182;5.398;2022-11-02T01:32:33;101365.41;;;11.84;87.97
71976;BME280;60680;52.182;5.398;2022-11-02T01:34:59;101366.53;;;11.79;86.73
71976;BME280;60680;52.182;5.398;2022-11-02T01:37:28;101363.59;;;11.68;86.40
71976;BME280;60680;52.182;5.398;2022-11-02T01:39:54;101368.19;;;11.62;85.83
71976;BME280;60680;52.182;5.398;2022-11-02T01:42:23;101359.75;;;11.56;84.55
71976;BME280;60680;52.182;5.398;2022-11-02T01:44:50;101355.75;;;11.49;84.33
71976;BME280;60680;52.182;5.398;2022-11-02T01:47:29;101326.25;;;11.48;85.30
71976;BME280;60680;52.182;5.398;2022-11-02T01:50:19;101361.31;;;11.41;84.81
71976;BME280;60680;52.182;5.398;2022-11-02T01:52:47;101357.47;;;11.31;84.77
71976;BME280;60680;52.182;5.398;2022-11-02T01:57:50;101336.75;;;11.28;84.83
71976;BME280;60680;52.182;5.398;2022-11-02T02:00:19;101332.69;;;11.22;84.97
71976;BME280;60680;52.182;5.398;2022-11-02T02:03:00;101347.53;;;11.20;84.92
71976;BME280;60680;52.182;5.398;2022-11-02T02:05:28;101344.25;;;11.15;83.91
71976;BME280;60680;52.182;5.398;2022-11-02T02:07:56;101336.66;;;11.10;85.08
71976;BME280;60680;52.182;5.398;2022-11-02T02:10:23;101339.53;;;11.04;83.66
71976;BME280;60680;52.182;5.398;2022-11-02T02:12:49;101329.94;;;11.05;85.09
71976;BME280;60680;52.182;5.398;2022-11-02T02:15:16;101334.38;;;11.02;84.64
71976;BME280;60680;52.182;5.398;2022-11-02T02:17:55;101337.72;;;11.06;85.69
71976;BME280;60680;52.182;5.398;2022-11-02T02:23:14;101341.25;;;11.05;85.50
71976;BME280;60680;52.182;5.398;2022-11-02T02:25:57;101342.28;;;11.01;85.46
71976;BME280;60680;52.182;5.398;2022-11-02T02:28:41;101335.31;;;11.01;85.30
71976;BME280;60680;52.182;5.398;2022-11-02T02:36:43;101346.78;;;10.97;86.13
71976;BME280;60680;52.182;5.398;2022-11-02T02:39:39;101346.78;;;10.97;86.34
71976;BME280;60680;52.182;5.398;2022-11-02T02:45:05;101351.94;;;10.99;85.82
71976;BME280;60680;52.182;5.398;2022-11-02T02:47:34;101349.31;;;10.99;86.07
71976;BME280;60680;52.182;5.398;2022-11-02T02:50:09;101345.84;;;10.98;86.64
71976;BME280;60680;52.182;5.398;2022-11-02T02:52:37;101343.25;;;10.98;86.04
71976;BME280;60680;52.182;5.398;2022-11-02T02:55:07;101332.81;;;10.98;86.54
71976;BME280;60680;52.182;5.398;2022-11-02T02:57:40;101328.50;;;10.99;86.43
71976;BME280;60680;52.182;5.398;2022-11-02T03:00:14;101337.84;;;11.03;86.98
71976;BME280;60680;52.182;5.398;2022-11-02T03:02:44;101337.09;;;11.01;86.48
71976;BME280;60680;52.182;5.398;2022-11-02T03:05:34;101341.34;;;11.02;87.33
71976;BME280;60680;52.182;5.398;2022-11-02T03:08:08;101337.09;;;11.01;87.55
71976;BME280;60680;52.182;5.398;2022-11-02T03:10:47;101327.44;;;11.03;88.13
71976;BME280;60680;52.182;5.398;2022-11-02T03:16:42;101332.50;;;11.06;87.65
71976;BME280;60680;52.182;5.398;2022-11-02T03:20:02;101337.56;;;11.09;88.10
71976;BME280;60680;52.182;5.398;2022-11-02T03:22:33;101340.81;;;11.14;87.96
71976;BME280;60680;52.182;5.398;2022-11-02T03:25:08;101339.00;;;11.16;87.72
71976;BME280;60680;52.182;5.398;2022-11-02T03:27:54;101345.81;;;11.19;87.98
71976;BME280;60680;52.182;5.398;2022-11-02T03:30:23;101339.78;;;11.18;87.13
71976;BME280;60680;52.182;5.398;2022-11-02T03:35:32;101354.56;;;11.18;87.53
71976;BME280;60680;52.182;5.398;2022-11-02T03:38:05;101352.84;;;11.17;87.48
71976;BME280;60680;52.182;5.398;2022-11-02T03:40:43;101355.53;;;11.15;86.95
71976;BME280;60680;52.182;5.398;2022-11-02T03:43:12;101347.69;;;11.15;86.89
71976;BME280;60680;52.182;5.398;2022-11-02T03:45:49;101349.41;;;11.16;87.75
71976;BME280;60680;52.182;5.398;2022-11-02T03:48:18;101353.84;;;11.14;87.26
71976;BME280;60680;52.182;5.398;2022-11-02T03:50:48;101354.63;;;11.16;86.77
71976;BME280;60680;52.182;5.398;2022-11-02T03:53:27;101363.28;;;11.17;87.22
71976;BME280;60680;52.182;5.398;2022-11-02T03:56:05;101356.25;;;11.19;86.27
71976;BME280;60680;52.182;5.398;2022-11-02T03:58:34;101350.25;;;11.17;85.78
71976;BME280;60680;52.182;5.398;2022-11-02T04:01:03;101358.84;;;11.19;85.68
71976;BME280;60680;52.182;5.398;2022-11-02T04:03:37;101357.78;;;11.23;85.42
71976;BME280;60680;52.182;5.398;2022-11-02T04:06:06;101362.94;;;11.25;85.49
71976;BME280;60680;52.182;5.398;2022-11-02T04:08:38;101374.06;;;11.28;86.00
71976;BME280;60680;52.182;5.398;2022-11-02T04:11:05;101385.19;;;11.32;85.62
71976;BME280;60680;52.182;5.398;2022-11-02T04:13:50;101372.09;;;11.33;85.02
71976;BME280;60680;52.182;5.398;2022-11-02T04:16:35;101385.06;;;11.35;84.14
71976;BME280;60680;52.182;5.398;2022-11-02T04:19:02;101381.47;;;11.37;84.85
71976;BME280;60680;52.182;5.398;2022-11-02T04:21:47;101388.31;;;11.40;84.51
71976;BME280;60680;52.182;5.398;2022-11-02T04:24:32;101386.47;;;11.42;84.07
71976;BME280;60680;52.182;5.398;2022-11-02T04:27:17;101395.19;;;11.41;85.18
71976;BME280;60680;52.182;5.398;2022-11-02T04:29:47;101414.31;;;11.41;85.06
71976;BME280;60680;52.182;5.398;2022-11-02T04:32:14;101414.34;;;11.40;85.04
71976;BME280;60680;52.182;5.398;2022-11-02T04:35:01;101425.69;;;11.39;85.41
71976;BME280;60680;52.182;5.398;2022-11-02T04:37:27;101440.41;;;11.40;85.92
71976;BME280;60680;52.182;5.398;2022-11-02T04:40:13;101451.69;;;11.40;85.37
71976;BME280;60680;52.182;5.398;2022-11-02T04:42:39;101457.72;;;11.41;85.31
71976;BME280;60680;52.182;5.398;2022-11-02T04:45:06;101447.25;;;11.42;84.76
71976;BME280;60680;52.182;5.398;2022-11-02T04:47:33;101447.19;;;11.44;85.46
71976;BME280;60680;52.182;5.398;2022-11-02T04:49:59;101435.94;;;11.43;85.07
71976;BME280;60680;52.182;5.398;2022-11-02T04:52:26;101455.00;;;11.44;84.86
71976;BME280;60680;52.182;5.398;2022-11-02T04:54:52;101444.59;;;11.44;84.31
71976;BME280;60680;52.182;5.398;2022-11-02T04:57:19;101472.31;;;11.45;84.52
71976;BME280;60680;52.182;5.398;2022-11-02T04:59:45;101475.81;;;11.46;85.51
71976;BME280;60680;52.182;5.398;2022-11-02T05:02:12;101488.84;;;11.46;85.15
71976;BME280;60680;52.182;5.398;2022-11-02T05:04:39;101490.56;;;11.45;85.68
71976;BME280;60680;52.182;5.398;2022-11-02T05:07:05;101494.16;;;11.42;86.06
71976;BME280;60680;52.182;5.398;2022-11-02T05:09:33;101502.97;;;11.40;85.89
71976;BME280;60680;52.182;5.398;2022-11-02T05:12:00;101511.69;;;11.39;86.18
71976;BME280;60680;52.182;5.398;2022-11-02T05:14:27;101526.47;;;11.38;86.20
71976;BME280;60680;52.182;5.398;2022-11-02T05:16:53;101523.88;;;11.38;85.85
71976;BME280;60680;52.182;5.398;2022-11-02T05:19:20;101519.50;;;11.39;86.55
71976;BME280;60680;52.182;5.398;2022-11-02T05:21:46;101521.34;;;11.37;86.20
71976;BME280;60680;52.182;5.398;2022-11-02T05:24:13;101523.09;;;11.36;86.35
71976;BME280;60680;52.182;5.398;2022-11-02T05:26:39;101521.41;;;11.35;86.25
71976;BME280;60680;52.182;5.398;2022-11-02T05:29:06;101528.50;;;11.32;86.51
71976;BME280;60680;52.182;5.398;2022-11-02T05:31:33;101542.44;;;11.31;86.53
71976;BME280;60680;52.182;5.398;2022-11-02T05:34:00;101539.06;;;11.29;86.64
71976;BME280;60680;52.182;5.398;2022-11-02T05:36:26;101536.50;;;11.27;86.78
71976;BME280;60680;52.182;5.398;2022-11-02T05:38:53;101536.63;;;11.24;86.83
71976;BME280;60680;52.182;5.398;2022-11-02T05:41:21;101536.72;;;11.22;86.11
71976;BME280;60680;52.182;5.398;2022-11-02T05:43:48;101538.38;;;11.23;86.65
71976;BME280;60680;52.182;5.398;2022-11-02T05:46:14;101544.53;;;11.22;86.53
71976;BME280;60680;52.182;5.398;2022-11-02T05:48:41;101545.38;;;11.23;86.44
71976;BME280;60680;52.182;5.398;2022-11-02T05:51:08;101554.88;;;11.24;86.22
71976;BME280;60680;52.182;5.398;2022-11-02T05:53:35;101565.38;;;11.22;86.47
71976;BME280;60680;52.182;5.398;2022-11-02T05:56:05;101560.16;;;11.22;86.59
71976;BME280;60680;52.182;5.398;2022-11-02T05:58:32;101557.47;;;11.24;86.51
71976;BME280;60680;52.182;5.398;2022-11-02T06:01:04;101569.53;;;11.27;86.77
71976;BME280;60680;52.182;5.398;2022-11-02T06:03:31;101577.28;;;11.28;86.74
71976;BME280;60680;52.182;5.398;2022-11-02T06:06:03;101585.97;;;11.29;86.38
71976;BME280;60680;52.182;5.398;2022-11-02T06:08:31;101584.25;;;11.28;86.37
71976;BME280;60680;52.182;5.398;2022-11-02T06:11:10;101587.69;;;11.28;86.37
71976;BME280;60680;52.182;5.398;2022-11-02T06:13:37;101594.72;;;11.26;85.67
71976;BME280;60680;52.182;5.398;2022-11-02T06:16:05;101602.53;;;11.26;85.83
71976;BME280;60680;52.182;5.398;2022-11-02T06:18:35;101606.13;;;11.23;85.72
71976;BME280;60680;52.182;5.398;2022-11-02T06:21:02;101610.50;;;11.23;85.26
71976;BME280;60680;52.182;5.398;2022-11-02T06:23:30;101628.78;;;11.21;85.36
71976;BME280;60680;52.182;5.398;2022-11-02T06:25:58;101620.97;;;11.21;85.57
71976;BME280;60680;52.182;5.398;2022-11-02T06:28:25;101630.59;;;11.19;85.45
71976;BME280;60680;52.182;5.398;2022-11-02T06:30:51;101630.69;;;11.18;85.11
71976;BME280;60680;52.182;5.398;2022-11-02T06:33:18;101638.56;;;11.16;84.97
71976;BME280;60680;52.182;5.398;2022-11-02T06:35:46;101644.66;;;11.15;85.28
71976;BME280;60680;52.182;5.398;2022-11-02T06:38:14;101649.03;;;11.15;84.79
71976;BME280;60680;52.182;5.398;2022-11-02T06:40:41;101661.16;;;11.16;84.11
71976;BME280;60680;52.182;5.398;2022-11-02T06:43:08;101668.09;;;11.15;84.61
71976;BME280;60680;52.182;5.398;2022-11-02T06:45:43;101671.69;;;11.13;84.16
71976;BME280;60680;52.182;5.398;2022-11-02T06:48:09;101678.66;;;11.12;84.22
71976;BME280;60680;52.182;5.398;2022-11-02T06:50:36;101688.25;;;11.12;84.49
71976;BME280;60680;52.182;5.398;2022-11-02T06:53:02;101695.19;;;11.11;83.50
71976;BME280;60680;52.182;5.398;2022-11-02T06:55:30;101701.25;;;11.12;84.05
71976;BME280;60680;52.182;5.398;2022-11-02T06:57:56;101714.28;;;11.12;83.03
71976;BME280;60680;52.182;5.398;2022-11-02T07:00:23;101713.41;;;11.11;83.08
71976;BME280;60680;52.182;5.398;2022-11-02T07:03:03;101722.94;;;11.12;83.23
71976;BME280;60680;52.182;5.398;2022-11-02T07:05:31;101726.53;;;11.10;83.19
71976;BME280;60680;52.182;5.398;2022-11-02T07:07:58;101743.84;;;11.11;83.17
71976;BME280;60680;52.182;5.398;2022-11-02T07:10:25;101743.88;;;11.09;82.37
71976;BME280;60680;52.182;5.398;2022-11-02T07:12:53;101751.69;;;11.09;81.08
71976;BME280;60680;52.182;5.398;2022-11-02T07:15:20;101757.84;;;11.08;81.91
71976;BME280;60680;52.182;5.398;2022-11-02T07:17:47;101766.56;;;11.07;81.43
71976;BME280;60680;52.182;5.398;2022-11-02T07:20:14;101776.06;;;11.08;81.33
71976;BME280;60680;52.182;5.398;2022-11-02T07:22:41;101776.91;;;11.09;81.85
71976;BME280;60680;52.182;5.398;2022-11-02T07:25:08;101776.91;;;11.09;81.93
71976;BME280;60680;52.182;5.398;2022-11-02T07:27:38;101785.50;;;11.11;81.06
71976;BME280;60680;52.182;5.398;2022-11-02T07:30:06;101795.94;;;11.11;81.71
71976;BME280;60680;52.182;5.398;2022-11-02T07:32:42;101802.84;;;11.12;80.97
71976;BME280;60680;52.182;5.398;2022-11-02T07:35:10;101807.28;;;11.10;80.60
71976;BME280;60680;52.182;5.398;2022-11-02T07:37:37;101805.50;;;11.10;80.46
71976;BME280;60680;52.182;5.398;2022-11-02T07:40:05;101819.31;;;11.12;80.16
71976;BME280;60680;52.182;5.398;2022-11-02T07:42:32;101819.28;;;11.14;80.39
71976;BME280;60680;52.182;5.398;2022-11-02T07:44:59;101814.78;;;11.17;79.73
71976;BME280;60680;52.182;5.398;2022-11-02T07:47:26;101827.75;;;11.19;79.66
71976;BME280;60680;52.182;5.398;2022-11-02T07:49:52;101830.28;;;11.22;80.12
71976;BME280;60680;52.182;5.398;2022-11-02T07:52:19;101833.63;;;11.24;79.76
71976;BME280;60680;52.182;5.398;2022-11-02T07:54:45;101836.16;;;11.27;79.25
71976;BME280;60680;52.182;5.398;2022-11-02T07:57:12;101840.38;;;11.30;78.71
71976;BME280;60680;52.182;5.398;2022-11-02T07:59:38;101845.50;;;11.33;79.52
71976;BME280;60680;52.182;5.398;2022-11-02T08:02:05;101849.75;;;11.35;78.49
71976;BME280;60680;52.182;5.398;2022-11-02T08:04:32;101855.66;;;11.39;78.83
71976;BME280;60680;52.182;5.398;2022-11-02T08:06:58;101859.94;;;11.41;78.43
71976;BME280;60680;52.182;5.398;2022-11-02T08:09:25;101871.09;;;11.45;78.36
71976;BME280;60680;52.182;5.398;2022-11-02T08:11:52;101870.06;;;11.49;78.34
71976;BME280;60680;52.182;5.398;2022-11-02T08:14:18;101871.72;;;11.52;77.22
71976;BME280;60680;52.182;5.398;2022-11-02T08:16:45;101864.63;;;11.55;77.85
71976;BME280;60680;52.182;5.398;2022-11-02T08:19:13;101868.03;;;11.57;77.27
71976;BME280;60680;52.182;5.398;2022-11-02T08:21:39;101868.72;;;11.62;77.79
71976;BME280;60680;52.182;5.398;2022-11-02T08:24:06;101872.09;;;11.65;77.08
71976;BME280;60680;52.182;5.398;2022-11-02T08:26:33;101882.41;;;11.68;77.37
71976;BME280;60680;52.182;5.398;2022-11-02T08:29:01;101884.00;;;11.72;76.74
71976;BME280;60680;52.182;5.398;2022-11-02T08:31:28;101891.69;;;11.75;76.65
71976;BME280;60680;52.182;5.398;2022-11-02T08:33:56;101894.13;;;11.79;76.93
71976;BME280;60680;52.182;5.398;2022-11-02T08:36:23;101889.75;;;11.80;75.72
71976;BME280;60680;52.182;5.398;2022-11-02T08:38:50;101890.41;;;11.85;75.84
71976;BME280;60680;52.182;5.398;2022-11-02T08:41:16;101895.59;;;11.87;75.26
71976;BME280;60680;52.182;5.398;2022-11-02T08:43:43;101900.78;;;11.88;74.36
71976;BME280;60680;52.182;5.398;2022-11-02T08:46:09;101898.88;;;11.92;73.82
71976;BME280;60680;52.182;5.398;2022-11-02T08:48:42;101897.81;;;11.97;73.97
71976;BME280;60680;52.182;5.398;2022-11-02T08:51:08;101898.47;;;12.02;73.87
71976;BME280;60680;52.182;5.398;2022-11-02T08:53:35;101909.59;;;12.08;74.42
71976;BME280;60680;52.182;5.398;2022-11-02T08:56:02;101911.06;;;12.13;73.88
71976;BME280;60680;52.182;5.398;2022-11-02T08:58:29;101903.78;;;12.21;73.80
71976;BME280;60680;52.182;5.398;2022-11-02T09:00:55;101902.72;;;12.27;72.35
71976;BME280;60680;52.182;5.398;2022-11-02T09:03:22;101913.63;;;12.37;73.12
71976;BME280;60680;52.182;5.398;2022-11-02T09:06:00;101910.34;;;12.54;73.60
71976;BME280;60680;52.182;5.398;2022-11-02T09:08:28;101905.44;;;12.67;72.84
71976;BME280;60680;52.182;5.398;2022-11-02T09:11:00;101911.84;;;12.80;72.62
71976;BME280;60680;52.182;5.398;2022-11-02T09:13:27;101913.28;;;12.87;71.46
71976;BME280;60680;52.182;5.398;2022-11-02T09:15:56;101913.75;;;12.97;72.93
71976;BME280;60680;52.182;5.398;2022-11-02T09:18:23;101924.56;;;13.08;72.67
71976;BME280;60680;52.182;5.398;2022-11-02T09:20:50;101927.19;;;13.08;71.22
71976;BME280;60680;52.182;5.398;2022-11-02T09:23:18;101923.38;;;13.15;71.92
71976;BME280;60680;52.182;5.398;2022-11-02T09:25:45;101935.03;;;13.29;72.79
71976;BME280;60680;52.182;5.398;2022-11-02T09:28:12;101931.53;;;13.28;72.80
71976;BME280;60680;52.182;5.398;2022-11-02T09:30:41;101940.97;;;13.32;72.71
71976;BME280;60680;52.182;5.398;2022-11-02T09:33:08;101945.22;;;13.35;72.31
71976;BME280;60680;52.182;5.398;2022-11-02T09:35:37;101950.44;;;13.35;71.96
71976;BME280;60680;52.182;5.398;2022-11-02T09:38:04;101959.91;;;13.37;71.88
71976;BME280;60680;52.182;5.398;2022-11-02T09:40:39;101956.88;;;13.46;72.68
71976;BME280;60680;52.182;5.398;2022-11-02T09:45:40;101972.94;;;13.58;71.48
71976;BME280;60680;52.182;5.398;2022-11-02T09:48:30;101969.22;;;13.63;71.80
71976;BME280;60680;52.182;5.398;2022-11-02T09:54:07;101980.81;;;13.77;70.92
71976;BME280;60680;52.182;5.398;2022-11-02T09:56:41;101973.72;;;13.79;70.66
71976;BME280;60680;52.182;5.398;2022-11-02T09:59:19;101974.59;;;13.79;70.23
71976;BME280;60680;52.182;5.398;2022-11-02T10:15:01;101988.53;;;13.99;68.88
71976;BME280;60680;52.182;5.398;2022-11-02T10:17:33;101978.47;;;14.08;70.14
71976;BME280;60680;52.182;5.398;2022-11-02T10:22:53;102004.72;;;14.26;69.78
71976;BME280;60680;52.182;5.398;2022-11-02T10:25:21;101994.59;;;14.18;69.09
71976;BME280;60680;52.182;5.398;2022-11-02T10:27:52;102000.28;;;14.09;70.16
71976;BME280;60680;52.182;5.398;2022-11-02T10:30:26;101998.16;;;13.98;69.69
71976;BME280;60680;52.182;5.398;2022-11-02T10:32:53;101993.50;;;14.05;69.44
71976;BME280;60680;52.182;5.398;2022-11-02T10:38:26;102001.34;;;14.05;69.68
71976;BME280;60680;52.182;5.398;2022-11-02T10:41:15;102002.69;;;13.95;69.45
71976;BME280;60680;52.182;5.398;2022-11-02T10:44:06;102013.69;;;13.82;69.56
71976;BME280;60680;52.182;5.398;2022-11-02T10:52:05;102009.75;;;14.12;70.09
71976;BME280;60680;52.182;5.398;2022-11-02T10:54:33;102018.59;;;14.09;70.64
71976;BME280;60680;52.182;5.398;2022-11-02T10:57:08;102022.63;;;13.97;70.70
71976;BME280;60680;52.182;5.398;2022-11-02T10:59:36;102029.47;;;14.00;70.56
71976;BME280;60680;52.182;5.398;2022-11-02T11:02:10;102024.03;;;14.23;70.94
71976;BME280;60680;52.182;5.398;2022-11-02T11:04:39;102019.06;;;14.55;69.93
71976;BME280;60680;52.182;5.398;2022-11-02T11:07:15;102011.44;;;14.68;68.41
71976;BME280;60680;52.182;5.398;2022-11-02T11:09:54;102018.47;;;14.85;66.61
71976;BME280;60680;52.182;5.398;2022-11-02T11:12:33;102014.78;;;15.06;67.31
71976;BME280;60680;52.182;5.398;2022-11-02T11:15:03;102027.34;;;15.00;65.16
71976;BME280;60680;52.182;5.398;2022-11-02T11:17:51;102022.13;;;15.00;66.12
71976;BME280;60680;52.182;5.398;2022-11-02T11:20:39;102024.06;;;15.14;66.33
71976;BME280;60680;52.182;5.398;2022-11-02T11:23:22;102025.28;;;15.24;66.36
71976;BME280;60680;52.182;5.398;2022-11-02T11:25:58;102032.28;;;15.23;66.23
71976;BME280;60680;52.182;5.398;2022-11-02T11:28:37;102024.81;;;15.16;66.17
71976;BME280;60680;52.182;5.398;2022-11-02T11:33:43;102028.75;;;15.07;66.50
71976;BME280;60680;52.182;5.398;2022-11-02T11:36:22;102022.66;;;15.06;66.36
71976;BME280;60680;52.182;5.398;2022-11-02T11:38:51;102030.50;;;15.06;67.08
71976;BME280;60680;52.182;5.398;2022-11-02T11:41:19;102027.06;;;15.06;67.51
71976;BME280;60680;52.182;5.398;2022-11-02T11:43:46;102022.66;;;15.06;66.94
71976;BME280;60680;52.182;5.398;2022-11-02T11:46:15;102024.50;;;15.04;66.25
71976;BME280;60680;52.182;5.398;2022-11-02T11:54:28;102022.50;;;15.27;65.56
71976;BME280;60680;52.182;5.398;2022-11-02T11:57:16;102011.78;;;15.14;65.38
71976;BME280;60680;52.182;5.398;2022-11-02T11:59:47;102013.47;;;14.98;64.76
71976;BME280;60680;52.182;5.398;2022-11-02T12:02:25;102019.50;;;15.00;67.21
71976;BME280;60680;52.182;5.398;2022-11-02T12:10:41;102015.41;;;15.12;64.67
71976;BME280;60680;52.182;5.398;2022-11-02T12:13:22;102023.28;;;15.12;64.56
71976;BME280;60680;52.182;5.398;2022-11-02T12:21:41;102030.44;;;14.91;65.01
71976;BME280;60680;52.182;5.398;2022-11-02T12:24:38;102018.03;;;14.94;64.76
71976;BME280;60680;52.182;5.398;2022-11-02T12:27:44;102015.19;;;14.81;63.60
71976;BME280;60680;52.182;5.398;2022-11-02T12:41:36;101987.28;;;14.80;63.48
71976;BME280;60680;52.182;5.398;2022-11-02T12:50:01;101986.13;;;14.68;61.14
71976;BME280;60680;52.182;5.398;2022-11-02T12:55:13;101992.19;;;14.69;63.03
71976;BME280;60680;52.182;5.398;2022-11-02T12:57:43;101996.72;;;14.65;61.93
71976;BME280;60680;52.182;5.398;2022-11-02T13:00:22;101995.13;;;14.63;60.88
71976;BME280;60680;52.182;5.398;2022-11-02T13:03:00;101991.72;;;14.61;61.18
71976;BME280;60680;52.182;5.398;2022-11-02T13:05:45;102004.81;;;14.61;61.14
71976;BME280;60680;52.182;5.398;2022-11-02T13:08:17;101994.84;;;14.50;60.85
71976;BME280;60680;52.182;5.398;2022-11-02T13:10:52;101993.00;;;14.52;61.15
71976;BME280;60680;52.182;5.398;2022-11-02T13:13:37;101996.38;;;14.54;61.34
71976;BME280;60680;52.182;5.398;2022-11-02T13:16:07;101988.53;;;14.54;61.49
71976;BME280;60680;52.182;5.398;2022-11-02T13:18:43;101989.34;;;14.56;63.07
71976;BME280;60680;52.182;5.398;2022-11-02T13:21:15;101972.69;;;14.57;62.72
71976;BME280;60680;52.182;5.398;2022-11-02T13:23:53;101975.50;;;14.53;60.99
71976;BME280;60680;52.182;5.398;2022-11-02T13:26:27;101970.50;;;14.48;61.42
71976;BME280;60680;52.182;5.398;2022-11-02T13:29:06;101975.84;;;14.45;60.80
71976;BME280;60680;52.182;5.398;2022-11-02T13:31:43;101962.03;;;14.43;61.38
71976;BME280;60680;52.182;5.398;2022-11-02T13:34:16;101961.16;;;14.42;61.96
71976;BME280;60680;52.182;5.398;2022-11-02T13:36:43;101955.91;;;14.42;62.95
71976;BME280;60680;52.182;5.398;2022-11-02T13:39:19;101946.22;;;14.44;61.10
71976;BME280;60680;52.182;5.398;2022-11-02T13:42:04;101953.22;;;14.44;61.17
71976;BME280;60680;52.182;5.398;2022-11-02T13:47:27;101960.25;;;14.43;60.30
71976;BME280;60680;52.182;5.398;2022-11-02T13:49:59;101954.16;;;14.43;60.51
71976;BME280;60680;52.182;5.398;2022-11-02T13:52:38;101938.50;;;14.41;60.78
71976;BME280;60680;52.182;5.398;2022-11-02T13:55:08;101937.69;;;14.41;60.80
71976;BME280;60680;52.182;5.398;2022-11-02T13:57:43;101949.00;;;14.41;61.39
71976;BME280;60680;52.182;5.398;2022-11-02T14:02:57;101949.22;;;14.37;61.12
71976;BME280;60680;52.182;5.398;2022-11-02T14:05:29;101953.59;;;14.36;61.15
71976;BME280;60680;52.182;5.398;2022-11-02T14:08:02;101949.28;;;14.35;61.43
71976;BME280;60680;52.182;5.398;2022-11-02T14:10:35;101944.19;;;14.32;61.11
71976;BME280;60680;52.182;5.398;2022-11-02T14:13:03;101948.81;;;14.27;61.92
71976;BME280;60680;52.182;5.398;2022-11-02T14:18:06;101949.03;;;14.22;61.73
71976;BME280;60680;52.182;5.398;2022-11-02T14:20:42;101943.56;;;14.27;62.65
71976;BME280;60680;52.182;5.398;2022-11-02T14:25:52;101946.97;;;14.29;62.99
71976;BME280;60680;52.182;5.398;2022-11-02T14:38:58;101926.53;;;14.18;65.17
71976;BME280;60680;52.182;5.398;2022-11-02T14:47:09;101922.81;;;14.05;65.77
71976;BME280;60680;52.182;5.398;2022-11-02T14:49:58;101915.66;;;14.08;66.47
71976;BME280;60680;52.182;5.398;2022-11-02T14:52:32;101907.91;;;14.07;65.99
71976;BME280;60680;52.182;5.398;2022-11-02T14:55:21;101918.38;;;14.07;66.27
71976;BME280;60680;52.182;5.398;2022-11-02T14:58:17;101909.63;;;14.06;67.04
71976;BME280;60680;52.182;5.398;2022-11-02T15:08:32;101910.25;;;13.94;66.87
71976;BME280;60680;52.182;5.398;2022-11-02T15:22:35;101893.34;;;13.82;68.76
71976;BME280;60680;52.182;5.398;2022-11-02T15:25:35;101892.63;;;13.79;68.45
71976;BME280;60680;52.182;5.398;2022-11-02T15:28:06;101883.31;;;13.73;69.03